createdAt,value
2023-05-23T00:01:17.412Z,12.63
2023-05-23T00:04:22.823Z,13.55
2023-05-23T00:07:28.680Z,13.80
2023-05-23T00:10:34.559Z,14.20
2023-05-23T00:13:40.318Z,13.68
2023-05-23T00:16:46.695Z,14.45
2023-05-23T00:19:53.191Z,13.48
2023-05-23T00:23:01.330Z,14.25
2023-05-23T00:26:07.034Z,14.32
2023-05-23T00:29:18.635Z,14.15
2023-05-23T00:32:24.601Z,15.23
2023-05-23T00:35:31.052Z,14.93
2023-05-23T00:38:36.284Z,13.88
2023-05-23T00:41:41.911Z,14.68
2023-05-23T00:44:48.772Z,15.07
2023-05-23T00:47:54.850Z,15.50
2023-05-23T00:51:01.024Z,16.00
2023-05-23T00:54:07.350Z,15.35
2023-05-23T00:57:13.183Z,16.15
2023-05-23T01:00:20.320Z,16.75
2023-05-23T01:03:29.429Z,15.40
2023-05-23T01:06:35.228Z,17.38
2023-05-23T01:09:41.235Z,19.38
2023-05-23T01:13:24.680Z,17.55
2023-05-23T01:16:41.764Z,17.05
2023-05-23T01:20:01.460Z,17.73
2023-05-23T01:23:41.060Z,17.60
2023-05-23T01:27:06.390Z,18.02
2023-05-23T01:30:14.248Z,17.08
2023-05-23T01:33:23.115Z,17.10
2023-05-23T01:36:30.052Z,18.40
2023-05-23T01:39:35.983Z,17.73
2023-05-23T01:42:41.841Z,17.80
2023-05-23T01:45:48.478Z,17.40
2023-05-23T01:48:56.229Z,18.20
2023-05-23T01:52:02.534Z,19.13
2023-05-23T01:55:10.097Z,18.48
2023-05-23T01:58:17.396Z,17.98
2023-05-23T02:01:22.915Z,18.15
2023-05-23T02:04:31.304Z,18.05
2023-05-23T02:07:38.106Z,17.42
2023-05-23T02:10:43.336Z,16.90
2023-05-23T02:13:48.839Z,17.77
2023-05-23T02:16:55.154Z,18.48
2023-05-23T02:20:01.215Z,18.05
2023-05-23T02:23:07.220Z,17.85
2023-05-23T02:26:13.379Z,17.60
2023-05-23T02:29:19.268Z,18.20
2023-05-23T02:32:25.212Z,18.25
2023-05-23T02:35:30.609Z,18.05
2023-05-23T02:38:36.357Z,19.90
2023-05-23T02:41:42.138Z,18.48
2023-05-23T02:44:47.732Z,18.80
2023-05-23T02:47:53.764Z,20.63
2023-05-23T02:50:59.729Z,20.40
2023-05-23T02:54:05.385Z,19.20
2023-05-23T02:57:14.631Z,20.00
2023-05-23T03:00:20.915Z,20.42
2023-05-23T03:03:33.856Z,21.30
2023-05-23T03:06:42.400Z,21.33
2023-05-23T03:09:48.283Z,21.90
2023-05-23T03:12:54.090Z,21.65
2023-05-23T03:16:00.182Z,19.52
2023-05-23T03:19:05.994Z,21.55
2023-05-23T03:22:11.633Z,22.15
2023-05-23T03:25:17.164Z,21.42
2023-05-23T03:28:22.491Z,21.33
2023-05-23T03:31:28.194Z,20.85
2023-05-23T03:34:36.954Z,20.88
2023-05-23T03:37:42.469Z,19.88
2023-05-23T03:40:48.505Z,20.90
2023-05-23T03:43:54.676Z,21.42
2023-05-23T03:47:01.248Z,20.92
2023-05-23T03:50:07.323Z,21.50
2023-05-23T03:53:14.557Z,21.27
2023-05-23T03:56:20.647Z,19.67
2023-05-23T03:59:26.478Z,20.17
2023-05-23T04:02:32.769Z,20.90
2023-05-23T04:05:38.794Z,19.52
2023-05-23T04:08:45.588Z,19.70
2023-05-23T04:11:52.347Z,20.63
2023-05-23T04:14:59.427Z,21.98
2023-05-23T04:18:05.739Z,20.83
2023-05-23T04:21:10.824Z,20.95
2023-05-23T04:24:25.324Z,20.95
2023-05-23T04:27:32.493Z,22.40
2023-05-23T04:30:38.455Z,21.85
2023-05-23T04:33:43.779Z,24.00
2023-05-23T04:36:49.792Z,24.50
2023-05-23T04:39:55.163Z,23.15
2023-05-23T04:43:14.703Z,23.52
2023-05-23T04:46:42.570Z,23.17
2023-05-23T04:49:57.799Z,25.40
2023-05-23T04:53:03.406Z,22.90
2023-05-23T04:56:10.123Z,24.30
2023-05-23T04:59:17.118Z,25.63
2023-05-23T05:02:23.008Z,27.52
2023-05-23T05:05:28.313Z,23.92
2023-05-23T05:08:33.979Z,23.42
2023-05-23T05:11:39.558Z,22.52
2023-05-23T05:14:45.253Z,24.33
2023-05-23T05:17:50.793Z,26.05
2023-05-23T05:20:58.952Z,27.55
2023-05-23T05:24:04.393Z,27.85
2023-05-23T05:27:11.960Z,25.05
2023-05-23T05:30:17.661Z,28.48
2023-05-23T05:33:36.531Z,28.05
2023-05-23T05:36:50.779Z,29.08
2023-05-23T05:39:57.293Z,28.65
2023-05-23T05:43:03.721Z,30.00
2023-05-23T05:46:09.653Z,30.30
2023-05-23T05:49:15.571Z,30.30
2023-05-23T05:52:24.210Z,29.95
2023-05-23T05:55:29.728Z,28.23
2023-05-23T05:58:35.264Z,27.73
2023-05-23T06:01:45.296Z,26.42
2023-05-23T06:04:51.415Z,25.45
2023-05-23T06:07:56.788Z,27.42
2023-05-23T06:11:02.843Z,21.83
2023-05-23T06:14:09.792Z,22.40
2023-05-23T06:17:19.431Z,23.30
2023-05-23T06:20:26.317Z,25.10
2023-05-23T06:23:33.602Z,27.65
2023-05-23T06:26:39.543Z,29.00
2023-05-23T06:29:45.337Z,25.73
2023-05-23T06:32:51.034Z,27.42
2023-05-23T06:35:57.744Z,29.33
2023-05-23T06:39:03.132Z,29.48
2023-05-23T06:42:08.888Z,29.13
2023-05-23T06:45:31.161Z,28.55
2023-05-23T06:48:36.690Z,27.15
2023-05-23T06:51:42.323Z,24.27
2023-05-23T06:54:47.868Z,25.90
2023-05-23T06:57:53.977Z,27.38
2023-05-23T07:01:00.966Z,24.65
2023-05-23T07:04:13.182Z,24.40
2023-05-23T07:07:19.296Z,24.05
2023-05-23T07:10:26.550Z,22.08
2023-05-23T07:13:38.253Z,21.95
2023-05-23T07:16:43.851Z,24.35
2023-05-23T07:19:49.399Z,23.63
2023-05-23T07:22:54.699Z,17.13
2023-05-23T07:26:05.481Z,16.48
2023-05-23T07:29:24.261Z,15.60
2023-05-23T07:32:32.230Z,14.70
2023-05-23T07:35:37.848Z,14.65
2023-05-23T07:38:43.618Z,18.70
2023-05-23T07:41:50.646Z,19.42
2023-05-23T07:44:57.300Z,19.65
2023-05-23T07:48:03.839Z,21.33
2023-05-23T07:51:10.958Z,22.27
2023-05-23T07:54:16.887Z,21.30
2023-05-23T07:57:24.675Z,21.13
2023-05-23T08:00:31.274Z,21.50
2023-05-23T08:03:43.751Z,23.65
2023-05-23T08:10:10.593Z,21.73
2023-05-23T08:13:18.686Z,20.15
2023-05-23T08:16:43.976Z,18.55
2023-05-23T08:19:54.820Z,20.00
2023-05-23T08:23:02.142Z,18.85
2023-05-23T08:26:08.382Z,19.45
2023-05-23T08:29:15.009Z,18.73
2023-05-23T08:32:21.642Z,18.90
2023-05-23T08:35:29.529Z,18.13
2023-05-23T08:38:35.293Z,20.02
2023-05-23T08:41:51.664Z,18.85
2023-05-23T08:44:57.090Z,19.17
2023-05-23T08:48:06.336Z,18.77
2023-05-23T08:51:16.192Z,18.27
2023-05-23T08:54:22.554Z,18.90
2023-05-23T08:57:30.694Z,18.58
2023-05-23T09:00:44.233Z,17.83
2023-05-23T09:03:51.683Z,17.67
2023-05-23T09:07:12.340Z,19.90
2023-05-23T09:10:18.252Z,20.88
2023-05-23T09:13:24.202Z,18.67
2023-05-23T09:16:36.901Z,18.85
2023-05-23T09:19:48.995Z,20.02
2023-05-23T09:23:16.699Z,19.10
2023-05-23T09:26:22.510Z,20.80
2023-05-23T09:29:28.300Z,21.08
2023-05-23T09:32:34.060Z,19.95
2023-05-23T09:35:45.454Z,22.55
2023-05-23T09:38:52.747Z,20.48
2023-05-23T09:42:00.069Z,17.70
2023-05-23T09:45:06.135Z,16.83
2023-05-23T09:48:14.678Z,17.73
2023-05-23T09:51:22.424Z,18.13
2023-05-23T09:54:27.773Z,18.98
2023-05-23T09:57:38.194Z,20.70
2023-05-23T10:00:46.681Z,22.08
2023-05-23T10:03:59.836Z,21.20
2023-05-23T10:07:15.107Z,19.33
2023-05-23T10:10:21.023Z,20.60
2023-05-23T10:13:27.885Z,23.42
2023-05-23T10:16:57.959Z,18.17
2023-05-23T10:20:12.696Z,20.88
2023-05-23T10:23:18.457Z,15.55
2023-05-23T10:26:24.129Z,16.88
2023-05-23T10:29:31.380Z,18.50
2023-05-23T10:32:39.533Z,14.70
2023-05-23T10:35:56.768Z,17.85
2023-05-23T10:39:13.523Z,15.73
2023-05-23T10:42:45.601Z,16.30
2023-05-23T10:45:52.406Z,8.80
2023-05-23T10:48:58.358Z,10.80
2023-05-23T10:52:03.863Z,15.35
2023-05-23T10:55:18.002Z,13.23
2023-05-23T10:58:23.683Z,9.07
2023-05-23T11:01:29.362Z,12.95
2023-05-23T11:04:35.177Z,11.38
2023-05-23T11:07:41.246Z,10.50
2023-05-23T11:11:03.161Z,11.40
2023-05-23T11:14:08.508Z,11.48
2023-05-23T11:17:13.892Z,11.55
2023-05-23T11:20:24.897Z,11.77
2023-05-23T11:23:42.786Z,14.00
2023-05-23T11:27:00.274Z,10.20
2023-05-23T11:30:08.185Z,11.73
2023-05-23T11:33:15.482Z,8.38
2023-05-23T11:36:24.324Z,8.40
2023-05-23T11:39:29.760Z,7.53
2023-05-23T11:42:34.949Z,10.13
2023-05-23T11:45:41.532Z,9.95
2023-05-23T11:48:48.189Z,8.65
2023-05-23T11:51:53.717Z,8.15
2023-05-23T11:55:03.862Z,9.82
2023-05-23T11:58:09.839Z,8.63
2023-05-23T12:01:15.222Z,8.40
2023-05-23T12:04:21.719Z,8.82
2023-05-23T12:07:27.653Z,8.25
2023-05-23T12:10:33.303Z,7.80
2023-05-23T12:13:42.465Z,6.70
2023-05-23T12:16:48.021Z,8.30
2023-05-23T12:19:54.456Z,8.32
2023-05-23T12:22:59.661Z,7.05
2023-05-23T12:26:07.751Z,8.13
2023-05-23T12:29:13.664Z,8.38
2023-05-23T12:32:19.040Z,9.07
2023-05-23T12:35:26.935Z,7.93
2023-05-23T12:38:38.239Z,8.32
2023-05-23T12:41:44.799Z,8.00
2023-05-23T12:44:53.891Z,7.75
2023-05-23T12:47:59.458Z,8.15
2023-05-23T12:51:05.402Z,7.10
2023-05-23T12:54:11.234Z,8.73
2023-05-23T12:57:16.722Z,7.55
2023-05-23T13:00:22.208Z,6.85
2023-05-23T13:03:27.905Z,8.05
2023-05-23T13:06:33.673Z,6.93
2023-05-23T13:09:40.225Z,6.18
2023-05-23T13:12:45.517Z,6.38
2023-05-23T13:15:51.508Z,6.18
2023-05-23T13:18:57.351Z,6.47
2023-05-23T13:22:04.859Z,6.53
2023-05-23T13:25:10.256Z,5.82
2023-05-23T13:28:15.586Z,6.80
2023-05-23T13:31:20.934Z,6.07
2023-05-23T13:34:27.665Z,7.00
2023-05-23T13:37:33.072Z,5.50
2023-05-23T13:40:38.618Z,6.40
2023-05-23T13:43:43.607Z,5.28
2023-05-23T13:46:48.891Z,5.28
2023-05-23T13:49:55.416Z,6.03
2023-05-23T13:53:01.882Z,6.70
2023-05-23T13:56:07.681Z,6.15
2023-05-23T13:59:13.355Z,6.35
2023-05-23T14:02:18.778Z,5.05
2023-05-23T14:05:24.055Z,4.95
2023-05-23T14:08:29.053Z,6.07
2023-05-23T14:11:34.147Z,5.10
2023-05-23T14:14:39.492Z,5.32
2023-05-23T14:17:45.078Z,6.45
2023-05-23T14:20:50.211Z,5.80
2023-05-23T14:23:55.515Z,5.95
2023-05-23T14:27:02.758Z,5.75
2023-05-23T14:30:09.206Z,5.95
2023-05-23T14:33:15.481Z,5.70
2023-05-23T14:36:21.206Z,5.13
2023-05-23T14:39:26.627Z,5.80
2023-05-23T14:42:31.810Z,5.47
2023-05-23T14:45:37.268Z,5.45
2023-05-23T14:48:43.141Z,4.85
2023-05-23T14:51:51.420Z,5.22
2023-05-23T14:54:57.546Z,5.85
2023-05-23T14:58:03.884Z,6.15
2023-05-23T15:01:09.820Z,5.30
2023-05-23T15:04:15.670Z,4.55
2023-05-23T15:07:21.856Z,4.85
2023-05-23T15:10:27.666Z,5.22
2023-05-23T15:13:32.976Z,5.40
2023-05-23T15:16:38.416Z,5.00
2023-05-23T15:19:44.910Z,5.22
2023-05-23T15:22:50.472Z,4.88
2023-05-23T15:25:56.411Z,4.53
2023-05-23T15:29:01.876Z,4.03
2023-05-23T15:32:08.618Z,5.45
2023-05-23T15:35:16.648Z,4.40
2023-05-23T15:38:23.388Z,4.10
2023-05-23T15:41:29.079Z,4.30
2023-05-23T15:44:34.686Z,5.45
2023-05-23T15:47:39.998Z,4.60
2023-05-23T15:50:46.325Z,6.40
2023-05-23T15:56:59.976Z,4.63
2023-05-23T16:00:06.873Z,4.28
2023-05-23T16:03:17.418Z,3.70
2023-05-23T16:06:23.613Z,3.90
2023-05-23T16:09:29.040Z,4.20
2023-05-23T16:12:34.812Z,4.03
2023-05-23T16:15:40.840Z,3.92
2023-05-23T16:18:46.732Z,4.10
2023-05-23T16:21:52.292Z,4.63
2023-05-23T16:24:58.024Z,4.57
2023-05-23T16:28:03.558Z,4.03
2023-05-23T16:31:08.998Z,4.63
2023-05-23T16:34:14.772Z,4.35
2023-05-23T16:37:20.635Z,3.83
2023-05-23T16:40:25.922Z,3.72
2023-05-23T16:43:31.667Z,4.10
2023-05-23T16:46:38.031Z,3.92
2023-05-23T16:49:43.342Z,4.43
2023-05-23T16:52:49.016Z,4.72
2023-05-23T16:55:54.539Z,4.30
2023-05-23T16:59:00.164Z,5.18
2023-05-23T17:02:05.663Z,4.47
2023-05-23T17:05:11.587Z,4.45
2023-05-23T17:08:17.128Z,4.82
2023-05-23T17:11:23.231Z,4.93
2023-05-23T17:14:28.575Z,4.25
2023-05-23T17:17:34.290Z,4.85
2023-05-23T17:20:41.144Z,4.53
2023-05-23T17:23:47.346Z,4.05
2023-05-23T17:26:53.222Z,5.45
2023-05-23T17:30:00.228Z,4.47
2023-05-23T17:33:06.012Z,5.00
2023-05-23T17:36:11.547Z,4.38
2023-05-23T17:39:17.184Z,4.93
2023-05-23T17:42:23.161Z,4.95
2023-05-23T17:45:28.993Z,5.22
2023-05-23T17:48:46.303Z,5.57
2023-05-23T17:51:54.077Z,4.60
2023-05-23T17:54:59.384Z,4.78
2023-05-23T17:58:05.285Z,5.85
2023-05-23T18:01:12.047Z,4.57
2023-05-23T18:04:17.547Z,4.47
2023-05-23T18:07:23.452Z,4.90
2023-05-23T18:10:29.543Z,4.70
2023-05-23T18:13:35.055Z,5.05
2023-05-23T18:16:42.030Z,4.60
2023-05-23T18:19:48.283Z,5.72
2023-05-23T18:22:55.571Z,6.00
2023-05-23T18:26:01.572Z,5.75
2023-05-23T18:29:07.037Z,4.78
2023-05-23T18:32:14.761Z,5.32
2023-05-23T18:35:22.077Z,4.70
2023-05-23T18:38:28.362Z,4.95
2023-05-23T18:41:33.953Z,4.95
2023-05-23T18:44:39.118Z,5.18
2023-05-23T18:47:45.038Z,5.13
2023-05-23T18:50:50.752Z,5.93
2023-05-23T18:53:56.847Z,5.80
2023-05-23T18:57:03.712Z,5.03
2023-05-23T19:00:09.999Z,5.28
2023-05-23T19:03:17.464Z,4.90
2023-05-23T19:06:23.152Z,5.40
2023-05-23T19:09:29.348Z,4.80
2023-05-23T19:12:35.068Z,5.50
2023-05-23T19:15:40.852Z,5.30
2023-05-23T19:18:47.765Z,5.30
2023-05-23T19:21:54.166Z,4.68
2023-05-23T19:24:59.875Z,5.03
2023-05-23T19:28:06.644Z,4.15
2023-05-23T19:31:13.081Z,5.00
2023-05-23T19:34:18.523Z,4.57
2023-05-23T19:37:25.034Z,5.75
2023-05-23T19:40:30.937Z,6.30
2023-05-23T19:43:36.566Z,4.93
2023-05-23T19:50:13.010Z,5.18
2023-05-23T19:53:18.841Z,5.13
2023-05-23T19:56:26.324Z,5.45
2023-05-23T19:59:32.146Z,5.95
2023-05-23T20:02:38.954Z,5.85
2023-05-23T20:05:44.873Z,5.57
2023-05-23T20:08:50.323Z,5.90
2023-05-23T20:11:55.225Z,5.13
2023-05-23T20:15:01.119Z,5.50
2023-05-23T20:18:07.596Z,6.78
2023-05-23T20:21:13.869Z,5.05
2023-05-23T20:24:19.873Z,5.78
2023-05-23T20:27:25.708Z,5.28
2023-05-23T20:30:31.603Z,6.30
2023-05-23T20:33:36.972Z,5.35
2023-05-23T20:36:42.257Z,5.78
2023-05-23T20:39:48.723Z,6.32
2023-05-23T20:42:54.433Z,5.93
2023-05-23T20:46:01.856Z,6.07
2023-05-23T20:49:16.988Z,5.43
2023-05-23T20:52:23.436Z,5.85
2023-05-23T20:55:29.289Z,7.18
2023-05-23T20:58:34.676Z,6.40
2023-05-23T21:01:40.504Z,8.40
2023-05-23T21:04:46.260Z,8.55
2023-05-23T21:07:51.835Z,9.80
2023-05-23T21:10:57.292Z,9.20
2023-05-23T21:14:03.177Z,10.43
2023-05-23T21:17:08.718Z,10.40
2023-05-23T21:20:14.796Z,10.27
2023-05-23T21:23:19.965Z,9.60
2023-05-23T21:26:25.162Z,10.82
2023-05-23T21:29:30.598Z,11.30
2023-05-23T21:32:36.135Z,11.13
2023-05-23T21:35:41.782Z,10.75
2023-05-23T21:38:47.432Z,10.45
2023-05-23T21:41:52.771Z,10.25
2023-05-23T21:44:58.162Z,8.52
2023-05-23T21:48:03.608Z,8.50
2023-05-23T21:51:08.813Z,8.02
2023-05-23T21:54:14.017Z,7.50
2023-05-23T21:57:19.969Z,7.72
2023-05-23T22:00:27.588Z,6.90
2023-05-23T22:03:32.925Z,6.53
2023-05-23T22:06:38.968Z,6.60
2023-05-23T22:09:44.411Z,6.75
2023-05-23T22:12:49.719Z,6.78
2023-05-23T22:15:55.038Z,6.45
2023-05-23T22:19:00.947Z,5.88
2023-05-23T22:22:08.173Z,5.88
2023-05-23T22:25:13.346Z,5.03
2023-05-23T22:28:18.444Z,5.78
2023-05-23T22:31:24.534Z,4.95
2023-05-23T22:34:30.295Z,5.43
2023-05-23T22:37:35.977Z,5.38
2023-05-23T22:40:41.484Z,5.78
2023-05-23T22:43:47.121Z,5.82
2023-05-23T22:46:52.840Z,5.68
2023-05-23T22:49:59.930Z,4.95
2023-05-23T22:53:05.571Z,4.75
2023-05-23T22:56:11.220Z,5.07
2023-05-23T22:59:16.831Z,4.75
2023-05-23T23:02:22.211Z,4.30
2023-05-23T23:05:27.603Z,4.95
2023-05-23T23:08:33.243Z,4.43
2023-05-23T23:11:39.114Z,4.57
2023-05-23T23:14:44.394Z,4.78
2023-05-23T23:17:49.902Z,4.28
2023-05-23T23:20:55.451Z,4.72
2023-05-23T23:24:01.608Z,4.78
2023-05-23T23:27:07.841Z,5.85
2023-05-23T23:30:13.864Z,5.45
2023-05-23T23:33:19.178Z,4.22
2023-05-23T23:36:24.364Z,4.60
2023-05-23T23:39:29.718Z,5.28
2023-05-23T23:42:35.237Z,5.05
2023-05-23T23:45:41.131Z,4.78
2023-05-23T23:48:47.270Z,6.53
2023-05-23T23:51:53.138Z,5.70
2023-05-23T23:54:58.895Z,5.43
2023-05-23T23:58:04.686Z,5.82
